Tropical Cyclones
[Index]
Main Index Home Page Stock Weather Photos Extreme Storms Discussion Storm News and Storm Chasing Reports Tropical Cyclones / Hurricanes / Typhoons Weather Data and Links Wild Fires / Bushfires Weather Observation Techniques Weather Picture Catalogue Tornado Pictures and Reports Stock Video Footage and DVDs for sale
Season 2002-2003 Tropical Cyclone FIONA Track Map
Season 2002-2003 Summaries (Operational Data): [AU] [SIO] [SPAC] [SH]
<<- Previous TC | 2002-2003 Season | Next TC ->>

click for intensity scale information  Lat/long Grid: Show Hide

 Date Labels: Show Hide

Operational Tropical Cyclone Data : JTWC Advisories

Name: FIONA
Number: 0314

04 Feb 2003 22:00 UTC to 13 Feb 2003 04:00 UTC

    date/time    lat    long     hPa   cat  kts
2003-02-04 22   11.5   113.5    1000         30          
2003-02-05 04   11.7   111.6    1000         30          
2003-02-05 07   11.8   111.2     997    1    40          
2003-02-05 10   11.7   110.8     990    1    45          
2003-02-05 16   11.9   109.8     985    1    45          
2003-02-05 22   11.9   109.4     985    2    50          
2003-02-06 04   11.9   109.5     985    2    50          
2003-02-06 10   11.9   109.0     975    2    55          
2003-02-06 16   12.0   108.3     970    2    60          
2003-02-06 22   12.1   107.7     970    2    60          
2003-02-07 04   12.2   106.6     965    3    65          
2003-02-07 10   12.4   105.9     960    3    70          
2003-02-07 16   12.7   104.8     960    3    70          
2003-02-07 22   13.2   104.0     955    3    75          
2003-02-08 04   13.7   103.1     930    4   100          
2003-02-08 10   14.2   102.2     930    4   105          
2003-02-08 16   14.6   101.1     930    4   105          
2003-02-08 22   15.1   100.0     930    4   105          
2003-02-09 04   15.6    99.1     935    4    95          
2003-02-09 10   16.3    97.9     945    4    90          
2003-02-09 16   16.5    96.4     955    3    80          
2003-02-09 22   16.7    95.6     955    3    80          
2003-02-10 04   16.6    94.6     955    3    80          
2003-02-10 10   17.1    93.5     960    3    80          
2003-02-10 16   17.1    92.5     960    3    80          
2003-02-10 22   17.4    91.7     960    3    70          
2003-02-11 04   17.9    91.5     965    3    70          
2003-02-11 10   18.4    91.1     960    3    75          
2003-02-11 16   19.0    91.0     960    3    75          
2003-02-11 22   19.6    91.0     960    3    75          
2003-02-12 04   20.3    91.4     970    2    60          
2003-02-12 10   21.2    91.9     980    2    55          
2003-02-12 16   21.7    92.2     990    1    45          
2003-02-12 22   22.1    92.7     998    1    40          
2003-02-13 04   21.9    92.1    1002    1    35          
Winds are 10-min average.

Tropical cyclone tracks developed by Michael Bath using operational warnings and advisories and Google Maps.


[Australian Severe Weather index] [Copyright Notice] [Email Contacts] [Search This Site] [Privacy Policy]
Document: tropical_cyclone_fiona.htm Updated: 2 May 2017